sensor_id;sensor_type;location;lat;lon;timestamp;P1;durP1;ratioP1;P2;durP2;ratioP2
76447;SDS011;65284;51.040;13.722;2023-02-10T00:01:02;19.48;;;7.80;;
76447;SDS011;65284;51.040;13.722;2023-02-10T00:03:29;20.42;;;7.78;;
76447;SDS011;65284;51.040;13.722;2023-02-10T00:05:55;17.15;;;7.70;;
76447;SDS011;65284;51.040;13.722;2023-02-10T00:08:22;20.30;;;8.05;;
76447;SDS011;65284;51.040;13.722;2023-02-10T00:10:48;18.98;;;7.88;;
76447;SDS011;65284;51.040;13.722;2023-02-10T00:13:15;18.25;;;7.65;;
76447;SDS011;65284;51.040;13.722;2023-02-10T00:15:42;16.73;;;7.32;;
76447;SDS011;65284;51.040;13.722;2023-02-10T00:18:08;20.42;;;7.65;;
76447;SDS011;65284;51.040;13.722;2023-02-10T00:20:35;19.42;;;7.68;;
76447;SDS011;65284;51.040;13.722;2023-02-10T00:23:01;19.25;;;7.72;;
76447;SDS011;65284;51.040;13.722;2023-02-10T00:25:27;20.15;;;8.43;;
76447;SDS011;65284;51.040;13.722;2023-02-10T00:27:54;19.77;;;7.85;;
76447;SDS011;65284;51.040;13.722;2023-02-10T00:30:20;21.13;;;8.23;;
76447;SDS011;65284;51.040;13.722;2023-02-10T00:32:47;19.73;;;7.95;;
76447;SDS011;65284;51.040;13.722;2023-02-10T00:35:13;18.83;;;8.45;;
76447;SDS011;65284;51.040;13.722;2023-02-10T00:37:39;18.15;;;8.23;;
76447;SDS011;65284;51.040;13.722;2023-02-10T00:40:07;21.25;;;8.23;;
76447;SDS011;65284;51.040;13.722;2023-02-10T00:42:34;19.02;;;8.00;;
76447;SDS011;65284;51.040;13.722;2023-02-10T00:45:00;21.67;;;8.10;;
76447;SDS011;65284;51.040;13.722;2023-02-10T00:47:26;17.60;;;7.35;;
76447;SDS011;65284;51.040;13.722;2023-02-10T00:49:53;19.70;;;7.70;;
76447;SDS011;65284;51.040;13.722;2023-02-10T00:52:19;20.33;;;8.15;;
76447;SDS011;65284;51.040;13.722;2023-02-10T00:54:46;20.00;;;7.90;;
76447;SDS011;65284;51.040;13.722;2023-02-10T00:57:12;19.25;;;7.50;;
76447;SDS011;65284;51.040;13.722;2023-02-10T00:59:39;18.70;;;7.75;;
76447;SDS011;65284;51.040;13.722;2023-02-10T01:02:05;18.13;;;7.72;;
76447;SDS011;65284;51.040;13.722;2023-02-10T01:04:32;21.85;;;8.10;;
76447;SDS011;65284;51.040;13.722;2023-02-10T01:06:59;22.85;;;8.52;;
76447;SDS011;65284;51.040;13.722;2023-02-10T01:09:25;18.52;;;7.68;;
76447;SDS011;65284;51.040;13.722;2023-02-10T01:11:52;19.23;;;7.70;;
76447;SDS011;65284;51.040;13.722;2023-02-10T01:14:18;20.30;;;7.75;;
76447;SDS011;65284;51.040;13.722;2023-02-10T01:16:45;19.77;;;8.00;;
76447;SDS011;65284;51.040;13.722;2023-02-10T01:19:11;22.30;;;8.73;;
76447;SDS011;65284;51.040;13.722;2023-02-10T01:21:38;20.05;;;7.93;;
76447;SDS011;65284;51.040;13.722;2023-02-10T01:24:05;18.00;;;7.18;;
76447;SDS011;65284;51.040;13.722;2023-02-10T01:26:32;19.55;;;7.95;;
76447;SDS011;65284;51.040;13.722;2023-02-10T01:28:58;19.33;;;7.82;;
76447;SDS011;65284;51.040;13.722;2023-02-10T01:31:25;19.02;;;7.93;;
76447;SDS011;65284;51.040;13.722;2023-02-10T01:33:53;18.23;;;7.40;;
76447;SDS011;65284;51.040;13.722;2023-02-10T01:36:21;19.65;;;7.97;;
76447;SDS011;65284;51.040;13.722;2023-02-10T01:38:49;19.65;;;7.95;;
76447;SDS011;65284;51.040;13.722;2023-02-10T01:41:17;18.80;;;7.63;;
76447;SDS011;65284;51.040;13.722;2023-02-10T01:44:02;17.10;;;7.18;;
76447;SDS011;65284;51.040;13.722;2023-02-10T01:46:31;17.48;;;7.25;;
76447;SDS011;65284;51.040;13.722;2023-02-10T01:49:01;17.52;;;7.43;;
76447;SDS011;65284;51.040;13.722;2023-02-10T01:51:33;18.25;;;7.55;;
76447;SDS011;65284;51.040;13.722;2023-02-10T01:54:09;19.75;;;7.57;;
76447;SDS011;65284;51.040;13.722;2023-02-10T01:56:40;21.15;;;7.85;;
76447;SDS011;65284;51.040;13.722;2023-02-10T01:59:07;18.45;;;7.15;;
76447;SDS011;65284;51.040;13.722;2023-02-10T02:01:34;19.15;;;7.32;;
76447;SDS011;65284;51.040;13.722;2023-02-10T02:04:00;23.27;;;7.50;;
76447;SDS011;65284;51.040;13.722;2023-02-10T02:06:28;19.33;;;7.43;;
76447;SDS011;65284;51.040;13.722;2023-02-10T02:08:55;19.25;;;6.90;;
76447;SDS011;65284;51.040;13.722;2023-02-10T02:11:24;19.65;;;7.25;;
76447;SDS011;65284;51.040;13.722;2023-02-10T02:16:58;20.33;;;7.50;;
76447;SDS011;65284;51.040;13.722;2023-02-10T02:19:42;19.17;;;7.38;;
76447;SDS011;65284;51.040;13.722;2023-02-10T02:23:04;20.73;;;7.72;;
76447;SDS011;65284;51.040;13.722;2023-02-10T02:25:52;17.60;;;7.00;;
76447;SDS011;65284;51.040;13.722;2023-02-10T02:31:57;17.38;;;7.18;;
76447;SDS011;65284;51.040;13.722;2023-02-10T02:34:41;21.58;;;7.55;;
76447;SDS011;65284;51.040;13.722;2023-02-10T02:37:12;17.65;;;7.40;;
76447;SDS011;65284;51.040;13.722;2023-02-10T02:39:42;19.42;;;7.28;;
76447;SDS011;65284;51.040;13.722;2023-02-10T02:44:36;19.27;;;7.38;;
76447;SDS011;65284;51.040;13.722;2023-02-10T02:47:17;20.45;;;7.47;;
76447;SDS011;65284;51.040;13.722;2023-02-10T02:55:39;19.40;;;7.43;;
76447;SDS011;65284;51.040;13.722;2023-02-10T02:58:17;17.80;;;7.55;;
76447;SDS011;65284;51.040;13.722;2023-02-10T03:00:48;19.23;;;8.02;;
76447;SDS011;65284;51.040;13.722;2023-02-10T03:03:16;17.40;;;7.07;;
76447;SDS011;65284;51.040;13.722;2023-02-10T03:05:43;20.23;;;8.20;;
76447;SDS011;65284;51.040;13.722;2023-02-10T03:08:10;19.33;;;7.93;;
76447;SDS011;65284;51.040;13.722;2023-02-10T03:10:36;18.35;;;7.38;;
76447;SDS011;65284;51.040;13.722;2023-02-10T03:13:03;20.98;;;7.97;;
76447;SDS011;65284;51.040;13.722;2023-02-10T03:15:29;19.13;;;7.43;;
76447;SDS011;65284;51.040;13.722;2023-02-10T03:17:56;20.80;;;8.43;;
76447;SDS011;65284;51.040;13.722;2023-02-10T03:20:23;19.13;;;7.78;;
76447;SDS011;65284;51.040;13.722;2023-02-10T03:22:49;21.65;;;8.23;;
76447;SDS011;65284;51.040;13.722;2023-02-10T03:25:15;22.60;;;8.18;;
76447;SDS011;65284;51.040;13.722;2023-02-10T03:27:42;19.23;;;7.82;;
76447;SDS011;65284;51.040;13.722;2023-02-10T03:30:08;19.25;;;7.90;;
76447;SDS011;65284;51.040;13.722;2023-02-10T03:32:35;20.02;;;7.88;;
76447;SDS011;65284;51.040;13.722;2023-02-10T03:35:01;22.50;;;8.48;;
76447;SDS011;65284;51.040;13.722;2023-02-10T03:37:28;21.70;;;7.88;;
76447;SDS011;65284;51.040;13.722;2023-02-10T03:39:54;19.92;;;8.05;;
76447;SDS011;65284;51.040;13.722;2023-02-10T03:42:20;22.63;;;8.48;;
76447;SDS011;65284;51.040;13.722;2023-02-10T03:44:47;20.40;;;8.48;;
76447;SDS011;65284;51.040;13.722;2023-02-10T03:47:13;19.92;;;8.35;;
76447;SDS011;65284;51.040;13.722;2023-02-10T03:49:39;21.35;;;8.45;;
76447;SDS011;65284;51.040;13.722;2023-02-10T03:52:06;21.60;;;8.18;;
76447;SDS011;65284;51.040;13.722;2023-02-10T03:54:32;22.58;;;8.45;;
76447;SDS011;65284;51.040;13.722;2023-02-10T03:56:59;21.15;;;8.52;;
76447;SDS011;65284;51.040;13.722;2023-02-10T03:59:26;21.27;;;8.63;;
76447;SDS011;65284;51.040;13.722;2023-02-10T04:01:52;21.88;;;8.18;;
76447;SDS011;65284;51.040;13.722;2023-02-10T04:04:19;21.33;;;8.25;;
76447;SDS011;65284;51.040;13.722;2023-02-10T04:06:45;20.90;;;8.82;;
76447;SDS011;65284;51.040;13.722;2023-02-10T04:09:11;22.17;;;9.07;;
76447;SDS011;65284;51.040;13.722;2023-02-10T04:11:38;20.95;;;8.48;;
76447;SDS011;65284;51.040;13.722;2023-02-10T04:14:04;21.33;;;8.40;;
76447;SDS011;65284;51.040;13.722;2023-02-10T04:16:30;25.50;;;8.70;;
76447;SDS011;65284;51.040;13.722;2023-02-10T04:18:58;21.30;;;8.45;;
76447;SDS011;65284;51.040;13.722;2023-02-10T04:21:24;22.00;;;9.05;;
76447;SDS011;65284;51.040;13.722;2023-02-10T04:23:51;23.90;;;9.43;;
76447;SDS011;65284;51.040;13.722;2023-02-10T04:26:18;24.83;;;10.00;;
76447;SDS011;65284;51.040;13.722;2023-02-10T04:28:44;21.30;;;8.30;;
76447;SDS011;65284;51.040;13.722;2023-02-10T04:31:11;23.35;;;8.73;;
76447;SDS011;65284;51.040;13.722;2023-02-10T04:33:37;24.15;;;8.52;;
76447;SDS011;65284;51.040;13.722;2023-02-10T04:36:04;22.77;;;8.60;;
76447;SDS011;65284;51.040;13.722;2023-02-10T04:38:30;21.27;;;8.80;;
76447;SDS011;65284;51.040;13.722;2023-02-10T04:40:57;23.00;;;8.65;;
76447;SDS011;65284;51.040;13.722;2023-02-10T04:43:24;23.65;;;9.20;;
76447;SDS011;65284;51.040;13.722;2023-02-10T04:45:50;21.20;;;8.77;;
76447;SDS011;65284;51.040;13.722;2023-02-10T04:48:16;21.73;;;8.63;;
76447;SDS011;65284;51.040;13.722;2023-02-10T04:50:43;23.67;;;8.52;;
76447;SDS011;65284;51.040;13.722;2023-02-10T04:53:09;22.35;;;8.82;;
76447;SDS011;65284;51.040;13.722;2023-02-10T04:55:36;24.65;;;8.88;;
76447;SDS011;65284;51.040;13.722;2023-02-10T04:58:02;27.00;;;10.25;;
76447;SDS011;65284;51.040;13.722;2023-02-10T05:00:29;24.52;;;9.55;;
76447;SDS011;65284;51.040;13.722;2023-02-10T05:02:55;24.85;;;10.35;;
76447;SDS011;65284;51.040;13.722;2023-02-10T05:05:22;27.13;;;11.60;;
76447;SDS011;65284;51.040;13.722;2023-02-10T05:07:51;29.02;;;11.90;;
76447;SDS011;65284;51.040;13.722;2023-02-10T05:10:17;31.95;;;12.48;;
76447;SDS011;65284;51.040;13.722;2023-02-10T05:12:44;29.48;;;12.07;;
76447;SDS011;65284;51.040;13.722;2023-02-10T05:15:10;31.00;;;12.25;;
76447;SDS011;65284;51.040;13.722;2023-02-10T05:17:39;29.05;;;12.18;;
76447;SDS011;65284;51.040;13.722;2023-02-10T05:20:06;30.60;;;12.13;;
76447;SDS011;65284;51.040;13.722;2023-02-10T05:22:39;31.98;;;13.07;;
76447;SDS011;65284;51.040;13.722;2023-02-10T05:25:06;29.88;;;11.70;;
76447;SDS011;65284;51.040;13.722;2023-02-10T05:27:33;28.67;;;11.75;;
76447;SDS011;65284;51.040;13.722;2023-02-10T05:30:00;31.75;;;12.57;;
76447;SDS011;65284;51.040;13.722;2023-02-10T05:32:27;29.10;;;11.77;;
76447;SDS011;65284;51.040;13.722;2023-02-10T05:34:53;33.55;;;12.75;;
76447;SDS011;65284;51.040;13.722;2023-02-10T05:37:19;29.50;;;12.45;;
76447;SDS011;65284;51.040;13.722;2023-02-10T05:39:46;32.88;;;13.13;;
76447;SDS011;65284;51.040;13.722;2023-02-10T05:42:12;30.35;;;13.02;;
76447;SDS011;65284;51.040;13.722;2023-02-10T05:44:39;29.48;;;11.93;;
76447;SDS011;65284;51.040;13.722;2023-02-10T05:47:06;30.73;;;12.18;;
76447;SDS011;65284;51.040;13.722;2023-02-10T05:49:32;30.88;;;12.38;;
76447;SDS011;65284;51.040;13.722;2023-02-10T05:51:59;33.35;;;13.15;;
76447;SDS011;65284;51.040;13.722;2023-02-10T05:54:25;30.38;;;12.05;;
76447;SDS011;65284;51.040;13.722;2023-02-10T05:56:51;28.30;;;11.68;;
76447;SDS011;65284;51.040;13.722;2023-02-10T05:59:18;31.92;;;12.93;;
76447;SDS011;65284;51.040;13.722;2023-02-10T06:01:44;31.08;;;12.45;;
76447;SDS011;65284;51.040;13.722;2023-02-10T06:04:11;31.80;;;12.63;;
76447;SDS011;65284;51.040;13.722;2023-02-10T06:06:37;31.20;;;12.88;;
76447;SDS011;65284;51.040;13.722;2023-02-10T06:09:04;33.08;;;13.60;;
76447;SDS011;65284;51.040;13.722;2023-02-10T06:11:31;33.47;;;12.88;;
76447;SDS011;65284;51.040;13.722;2023-02-10T06:13:57;30.83;;;12.98;;
76447;SDS011;65284;51.040;13.722;2023-02-10T06:16:24;35.00;;;13.45;;
76447;SDS011;65284;51.040;13.722;2023-02-10T06:18:50;35.92;;;14.30;;
76447;SDS011;65284;51.040;13.722;2023-02-10T06:21:17;32.92;;;13.73;;
76447;SDS011;65284;51.040;13.722;2023-02-10T06:23:45;37.85;;;14.73;;
76447;SDS011;65284;51.040;13.722;2023-02-10T06:26:11;34.67;;;14.27;;
76447;SDS011;65284;51.040;13.722;2023-02-10T06:28:37;35.20;;;13.75;;
76447;SDS011;65284;51.040;13.722;2023-02-10T06:31:04;36.25;;;15.07;;
76447;SDS011;65284;51.040;13.722;2023-02-10T06:33:30;38.25;;;15.77;;
76447;SDS011;65284;51.040;13.722;2023-02-10T06:36:01;37.70;;;15.23;;
76447;SDS011;65284;51.040;13.722;2023-02-10T06:38:34;35.63;;;14.48;;
76447;SDS011;65284;51.040;13.722;2023-02-10T06:41:02;38.40;;;15.27;;
76447;SDS011;65284;51.040;13.722;2023-02-10T06:43:29;34.00;;;14.95;;
76447;SDS011;65284;51.040;13.722;2023-02-10T06:45:55;37.83;;;14.68;;
76447;SDS011;65284;51.040;13.722;2023-02-10T06:48:22;37.42;;;15.38;;
76447;SDS011;65284;51.040;13.722;2023-02-10T06:50:48;40.03;;;15.38;;
76447;SDS011;65284;51.040;13.722;2023-02-10T06:53:16;39.40;;;14.50;;
76447;SDS011;65284;51.040;13.722;2023-02-10T06:55:42;37.30;;;15.13;;
76447;SDS011;65284;51.040;13.722;2023-02-10T06:58:09;36.60;;;15.60;;
76447;SDS011;65284;51.040;13.722;2023-02-10T07:00:36;38.72;;;15.68;;
76447;SDS011;65284;51.040;13.722;2023-02-10T07:03:03;38.20;;;15.85;;
76447;SDS011;65284;51.040;13.722;2023-02-10T07:05:29;39.72;;;15.77;;
76447;SDS011;65284;51.040;13.722;2023-02-10T07:07:57;36.53;;;15.20;;
76447;SDS011;65284;51.040;13.722;2023-02-10T07:10:25;38.25;;;15.57;;
76447;SDS011;65284;51.040;13.722;2023-02-10T07:12:52;39.75;;;16.23;;
76447;SDS011;65284;51.040;13.722;2023-02-10T07:15:20;38.78;;;15.52;;
76447;SDS011;65284;51.040;13.722;2023-02-10T07:17:49;38.55;;;15.38;;
76447;SDS011;65284;51.040;13.722;2023-02-10T07:20:20;38.95;;;15.88;;
76447;SDS011;65284;51.040;13.722;2023-02-10T07:22:47;39.13;;;15.68;;
76447;SDS011;65284;51.040;13.722;2023-02-10T07:25:14;37.05;;;15.60;;
76447;SDS011;65284;51.040;13.722;2023-02-10T07:27:40;40.50;;;15.40;;
76447;SDS011;65284;51.040;13.722;2023-02-10T07:30:07;39.45;;;15.80;;
76447;SDS011;65284;51.040;13.722;2023-02-10T07:32:33;37.80;;;15.68;;
76447;SDS011;65284;51.040;13.722;2023-02-10T07:35:00;41.00;;;16.23;;
76447;SDS011;65284;51.040;13.722;2023-02-10T07:37:26;39.47;;;16.05;;
76447;SDS011;65284;51.040;13.722;2023-02-10T07:39:55;40.97;;;16.05;;
76447;SDS011;65284;51.040;13.722;2023-02-10T07:42:21;39.10;;;16.10;;
76447;SDS011;65284;51.040;13.722;2023-02-10T07:44:48;38.30;;;15.90;;
76447;SDS011;65284;51.040;13.722;2023-02-10T07:47:14;43.10;;;17.33;;
76447;SDS011;65284;51.040;13.722;2023-02-10T07:49:42;41.33;;;17.15;;
76447;SDS011;65284;51.040;13.722;2023-02-10T07:52:08;38.40;;;16.38;;
76447;SDS011;65284;51.040;13.722;2023-02-10T07:54:35;41.20;;;16.10;;
76447;SDS011;65284;51.040;13.722;2023-02-10T07:57:02;42.35;;;17.38;;
76447;SDS011;65284;51.040;13.722;2023-02-10T07:59:30;44.80;;;16.75;;
76447;SDS011;65284;51.040;13.722;2023-02-10T08:01:56;42.00;;;16.42;;
76447;SDS011;65284;51.040;13.722;2023-02-10T08:04:22;41.97;;;17.10;;
76447;SDS011;65284;51.040;13.722;2023-02-10T08:06:49;42.70;;;17.80;;
76447;SDS011;65284;51.040;13.722;2023-02-10T08:09:19;40.42;;;15.98;;
76447;SDS011;65284;51.040;13.722;2023-02-10T08:11:45;46.38;;;18.85;;
76447;SDS011;65284;51.040;13.722;2023-02-10T08:14:11;40.70;;;15.95;;
76447;SDS011;65284;51.040;13.722;2023-02-10T08:16:38;43.90;;;16.83;;
76447;SDS011;65284;51.040;13.722;2023-02-10T08:19:04;41.22;;;16.13;;
76447;SDS011;65284;51.040;13.722;2023-02-10T08:21:30;45.90;;;18.70;;
76447;SDS011;65284;51.040;13.722;2023-02-10T08:23:57;44.20;;;19.00;;
76447;SDS011;65284;51.040;13.722;2023-02-10T08:26:23;47.15;;;19.25;;
76447;SDS011;65284;51.040;13.722;2023-02-10T08:28:50;44.10;;;17.63;;
76447;SDS011;65284;51.040;13.722;2023-02-10T08:31:17;45.83;;;16.90;;
76447;SDS011;65284;51.040;13.722;2023-02-10T08:33:43;46.20;;;18.08;;
76447;SDS011;65284;51.040;13.722;2023-02-10T08:36:12;45.05;;;18.30;;
76447;SDS011;65284;51.040;13.722;2023-02-10T08:38:42;43.45;;;16.38;;
76447;SDS011;65284;51.040;13.722;2023-02-10T08:41:09;46.38;;;17.33;;
76447;SDS011;65284;51.040;13.722;2023-02-10T08:43:36;46.72;;;17.83;;
76447;SDS011;65284;51.040;13.722;2023-02-10T08:46:03;46.33;;;18.45;;
76447;SDS011;65284;51.040;13.722;2023-02-10T08:48:30;45.80;;;17.75;;
76447;SDS011;65284;51.040;13.722;2023-02-10T08:50:57;46.40;;;17.77;;
76447;SDS011;65284;51.040;13.722;2023-02-10T08:53:24;48.72;;;17.90;;
76447;SDS011;65284;51.040;13.722;2023-02-10T08:56:03;51.25;;;17.90;;
76447;SDS011;65284;51.040;13.722;2023-02-10T08:58:33;45.10;;;16.58;;
76447;SDS011;65284;51.040;13.722;2023-02-10T09:00:59;51.78;;;18.50;;
76447;SDS011;65284;51.040;13.722;2023-02-10T09:03:26;46.22;;;17.92;;
76447;SDS011;65284;51.040;13.722;2023-02-10T09:05:53;48.47;;;17.58;;
76447;SDS011;65284;51.040;13.722;2023-02-10T09:08:19;54.15;;;18.92;;
76447;SDS011;65284;51.040;13.722;2023-02-10T09:10:46;42.10;;;15.68;;
76447;SDS011;65284;51.040;13.722;2023-02-10T09:13:13;48.88;;;17.98;;
76447;SDS011;65284;51.040;13.722;2023-02-10T09:15:40;47.97;;;17.80;;
76447;SDS011;65284;51.040;13.722;2023-02-10T09:18:07;46.88;;;17.52;;
76447;SDS011;65284;51.040;13.722;2023-02-10T09:20:34;46.38;;;16.90;;
76447;SDS011;65284;51.040;13.722;2023-02-10T09:23:01;52.13;;;18.60;;
76447;SDS011;65284;51.040;13.722;2023-02-10T09:25:27;51.50;;;17.90;;
76447;SDS011;65284;51.040;13.722;2023-02-10T09:27:54;48.78;;;19.23;;
76447;SDS011;65284;51.040;13.722;2023-02-10T09:30:23;51.67;;;19.65;;
76447;SDS011;65284;51.040;13.722;2023-02-10T09:32:53;48.88;;;19.00;;
76447;SDS011;65284;51.040;13.722;2023-02-10T09:35:20;51.28;;;19.27;;
76447;SDS011;65284;51.040;13.722;2023-02-10T09:37:47;50.85;;;19.75;;
76447;SDS011;65284;51.040;13.722;2023-02-10T09:40:17;53.67;;;19.15;;
76447;SDS011;65284;51.040;13.722;2023-02-10T09:45:55;47.13;;;17.45;;
76447;SDS011;65284;51.040;13.722;2023-02-10T09:54:32;56.22;;;19.60;;
76447;SDS011;65284;51.040;13.722;2023-02-10T09:57:13;56.15;;;19.52;;
76447;SDS011;65284;51.040;13.722;2023-02-10T09:59:44;56.80;;;20.20;;
76447;SDS011;65284;51.040;13.722;2023-02-10T10:02:15;48.42;;;18.15;;
76447;SDS011;65284;51.040;13.722;2023-02-10T10:04:47;54.50;;;19.73;;
76447;SDS011;65284;51.040;13.722;2023-02-10T10:07:57;50.15;;;19.50;;
76447;SDS011;65284;51.040;13.722;2023-02-10T10:10:12;48.78;;;19.23;;
76447;SDS011;65284;51.040;13.722;2023-02-10T10:12:53;54.20;;;18.85;;
76447;SDS011;65284;51.040;13.722;2023-02-10T10:15:20;55.85;;;18.58;;
76447;SDS011;65284;51.040;13.722;2023-02-10T10:17:59;46.47;;;15.32;;
76447;SDS011;65284;51.040;13.722;2023-02-10T10:20:42;49.13;;;16.98;;
76447;SDS011;65284;51.040;13.722;2023-02-10T10:26:12;53.13;;;17.75;;
76447;SDS011;65284;51.040;13.722;2023-02-10T10:29:01;50.15;;;17.80;;
76447;SDS011;65284;51.040;13.722;2023-02-10T10:31:40;47.88;;;16.25;;
76447;SDS011;65284;51.040;13.722;2023-02-10T10:34:11;41.15;;;14.43;;
76447;SDS011;65284;51.040;13.722;2023-02-10T10:36:45;54.10;;;17.10;;
76447;SDS011;65284;51.040;13.722;2023-02-10T10:39:14;47.10;;;17.08;;
76447;SDS011;65284;51.040;13.722;2023-02-10T10:41:51;51.38;;;17.08;;
76447;SDS011;65284;51.040;13.722;2023-02-10T10:44:18;50.55;;;17.20;;
76447;SDS011;65284;51.040;13.722;2023-02-10T10:46:49;44.80;;;16.00;;
76447;SDS011;65284;51.040;13.722;2023-02-10T10:49:18;47.25;;;16.35;;
76447;SDS011;65284;51.040;13.722;2023-02-10T10:51:44;47.78;;;15.95;;
76447;SDS011;65284;51.040;13.722;2023-02-10T10:54:15;47.47;;;17.25;;
76447;SDS011;65284;51.040;13.722;2023-02-10T10:56:46;50.45;;;17.58;;
76447;SDS011;65284;51.040;13.722;2023-02-10T11:04:35;48.28;;;16.08;;
76447;SDS011;65284;51.040;13.722;2023-02-10T11:07:08;54.08;;;18.35;;
76447;SDS011;65284;51.040;13.722;2023-02-10T11:09:40;54.35;;;17.92;;
76447;SDS011;65284;51.040;13.722;2023-02-10T11:12:24;50.33;;;18.13;;
76447;SDS011;65284;51.040;13.722;2023-02-10T11:15:00;51.20;;;18.80;;
76447;SDS011;65284;51.040;13.722;2023-02-10T11:17:35;54.55;;;19.42;;
76447;SDS011;65284;51.040;13.722;2023-02-10T11:22:37;50.35;;;17.80;;
76447;SDS011;65284;51.040;13.722;2023-02-10T11:27:50;54.67;;;18.75;;
76447;SDS011;65284;51.040;13.722;2023-02-10T11:30:24;52.72;;;18.30;;
76447;SDS011;65284;51.040;13.722;2023-02-10T11:32:53;53.60;;;19.02;;
76447;SDS011;65284;51.040;13.722;2023-02-10T11:35:20;49.92;;;17.52;;
76447;SDS011;65284;51.040;13.722;2023-02-10T11:37:52;51.25;;;18.23;;
76447;SDS011;65284;51.040;13.722;2023-02-10T11:40:23;48.63;;;17.38;;
76447;SDS011;65284;51.040;13.722;2023-02-10T11:42:52;47.10;;;15.90;;
76447;SDS011;65284;51.040;13.722;2023-02-10T11:45:22;48.05;;;15.95;;
76447;SDS011;65284;51.040;13.722;2023-02-10T11:50:59;46.85;;;16.33;;
76447;SDS011;65284;51.040;13.722;2023-02-10T11:53:28;48.80;;;16.38;;
76447;SDS011;65284;51.040;13.722;2023-02-10T11:55:58;47.25;;;15.95;;
76447;SDS011;65284;51.040;13.722;2023-02-10T12:06:58;41.50;;;13.88;;
76447;SDS011;65284;51.040;13.722;2023-02-10T12:09:52;45.60;;;16.08;;
76447;SDS011;65284;51.040;13.722;2023-02-10T12:20:44;46.58;;;16.83;;
76447;SDS011;65284;51.040;13.722;2023-02-10T12:26:18;47.45;;;16.63;;
76447;SDS011;65284;51.040;13.722;2023-02-10T12:29:04;45.20;;;16.02;;
76447;SDS011;65284;51.040;13.722;2023-02-10T12:32:10;47.30;;;16.48;;
76447;SDS011;65284;51.040;13.722;2023-02-10T12:34:53;42.65;;;15.57;;
76447;SDS011;65284;51.040;13.722;2023-02-10T12:37:48;36.10;;;13.80;;
76447;SDS011;65284;51.040;13.722;2023-02-10T12:46:24;42.85;;;15.48;;
76447;SDS011;65284;51.040;13.722;2023-02-10T12:49:06;39.97;;;13.65;;
76447;SDS011;65284;51.040;13.722;2023-02-10T12:54:29;41.83;;;15.45;;
76447;SDS011;65284;51.040;13.722;2023-02-10T12:57:27;45.50;;;14.93;;
76447;SDS011;65284;51.040;13.722;2023-02-10T13:05:21;33.03;;;13.00;;
76447;SDS011;65284;51.040;13.722;2023-02-10T13:07:56;43.88;;;15.02;;
76447;SDS011;65284;51.040;13.722;2023-02-10T13:10:43;39.50;;;14.27;;
76447;SDS011;65284;51.040;13.722;2023-02-10T13:13:28;41.08;;;13.85;;
76447;SDS011;65284;51.040;13.722;2023-02-10T13:16:00;38.90;;;14.75;;
76447;SDS011;65284;51.040;13.722;2023-02-10T13:18:47;37.78;;;13.80;;
76447;SDS011;65284;51.040;13.722;2023-02-10T13:21:25;40.95;;;14.43;;
76447;SDS011;65284;51.040;13.722;2023-02-10T13:26:34;37.63;;;13.13;;
76447;SDS011;65284;51.040;13.722;2023-02-10T13:34:48;34.28;;;12.63;;
76447;SDS011;65284;51.040;13.722;2023-02-10T13:37:28;34.38;;;12.50;;
76447;SDS011;65284;51.040;13.722;2023-02-10T13:40:02;39.95;;;12.77;;
76447;SDS011;65284;51.040;13.722;2023-02-10T13:42:46;31.98;;;12.07;;
76447;SDS011;65284;51.040;13.722;2023-02-10T13:45:16;32.92;;;12.35;;
76447;SDS011;65284;51.040;13.722;2023-02-10T13:47:54;33.30;;;12.48;;
76447;SDS011;65284;51.040;13.722;2023-02-10T13:50:27;36.83;;;13.02;;
76447;SDS011;65284;51.040;13.722;2023-02-10T14:05:49;30.35;;;10.68;;
76447;SDS011;65284;51.040;13.722;2023-02-10T14:13:58;26.50;;;9.68;;
76447;SDS011;65284;51.040;13.722;2023-02-10T14:19:02;27.52;;;9.85;;
76447;SDS011;65284;51.040;13.722;2023-02-10T14:21:39;40.72;;;13.20;;
76447;SDS011;65284;51.040;13.722;2023-02-10T14:24:18;28.10;;;9.90;;
76447;SDS011;65284;51.040;13.722;2023-02-10T14:27:02;23.33;;;9.18;;
76447;SDS011;65284;51.040;13.722;2023-02-10T14:29:33;24.60;;;9.35;;
76447;SDS011;65284;51.040;13.722;2023-02-10T14:32:01;19.95;;;7.78;;
76447;SDS011;65284;51.040;13.722;2023-02-10T14:34:31;24.75;;;8.50;;
76447;SDS011;65284;51.040;13.722;2023-02-10T14:37:11;22.92;;;8.75;;
76447;SDS011;65284;51.040;13.722;2023-02-10T14:39:48;24.77;;;7.97;;
76447;SDS011;65284;51.040;13.722;2023-02-10T14:42:16;23.08;;;8.32;;
76447;SDS011;65284;51.040;13.722;2023-02-10T14:44:47;23.42;;;8.48;;
76447;SDS011;65284;51.040;13.722;2023-02-10T14:47:16;23.98;;;8.50;;
76447;SDS011;65284;51.040;13.722;2023-02-10T14:49:47;23.25;;;7.88;;
76447;SDS011;65284;51.040;13.722;2023-02-10T14:52:20;22.35;;;8.13;;
76447;SDS011;65284;51.040;13.722;2023-02-10T14:55:17;20.15;;;7.03;;
76447;SDS011;65284;51.040;13.722;2023-02-10T14:57:55;24.95;;;8.35;;
76447;SDS011;65284;51.040;13.722;2023-02-10T15:00:23;22.70;;;8.23;;
76447;SDS011;65284;51.040;13.722;2023-02-10T15:02:55;34.90;;;13.40;;
76447;SDS011;65284;51.040;13.722;2023-02-10T15:05:24;39.55;;;13.25;;
76447;SDS011;65284;51.040;13.722;2023-02-10T15:07:54;23.20;;;7.80;;
76447;SDS011;65284;51.040;13.722;2023-02-10T15:12:59;27.52;;;8.00;;
76447;SDS011;65284;51.040;13.722;2023-02-10T15:15:27;22.13;;;7.72;;
76447;SDS011;65284;51.040;13.722;2023-02-10T15:17:57;20.95;;;7.78;;
76447;SDS011;65284;51.040;13.722;2023-02-10T15:20:29;22.65;;;7.88;;
76447;SDS011;65284;51.040;13.722;2023-02-10T15:27:56;19.98;;;7.30;;
76447;SDS011;65284;51.040;13.722;2023-02-10T15:30:25;19.90;;;7.72;;
76447;SDS011;65284;51.040;13.722;2023-02-10T15:32:54;23.63;;;7.90;;
76447;SDS011;65284;51.040;13.722;2023-02-10T15:35:22;22.30;;;7.32;;
76447;SDS011;65284;51.040;13.722;2023-02-10T15:37:49;20.63;;;8.35;;
76447;SDS011;65284;51.040;13.722;2023-02-10T15:40:20;23.15;;;8.05;;
76447;SDS011;65284;51.040;13.722;2023-02-10T15:43:03;24.88;;;8.43;;
76447;SDS011;65284;51.040;13.722;2023-02-10T15:45:32;22.10;;;8.50;;
76447;SDS011;65284;51.040;13.722;2023-02-10T15:47:59;24.35;;;8.15;;
76447;SDS011;65284;51.040;13.722;2023-02-10T15:50:28;26.50;;;8.98;;
76447;SDS011;65284;51.040;13.722;2023-02-10T15:52:56;25.55;;;9.52;;
76447;SDS011;65284;51.040;13.722;2023-02-10T15:55:28;25.75;;;9.60;;
76447;SDS011;65284;51.040;13.722;2023-02-10T15:57:57;26.33;;;9.55;;
76447;SDS011;65284;51.040;13.722;2023-02-10T16:00:27;25.77;;;9.30;;
76447;SDS011;65284;51.040;13.722;2023-02-10T16:02:56;27.90;;;9.93;;
76447;SDS011;65284;51.040;13.722;2023-02-10T16:05:23;25.38;;;10.07;;
76447;SDS011;65284;51.040;13.722;2023-02-10T16:07:50;26.77;;;10.45;;
76447;SDS011;65284;51.040;13.722;2023-02-10T16:10:18;29.85;;;10.27;;
76447;SDS011;65284;51.040;13.722;2023-02-10T16:12:49;31.38;;;11.10;;
76447;SDS011;65284;51.040;13.722;2023-02-10T16:15:17;36.13;;;14.07;;
76447;SDS011;65284;51.040;13.722;2023-02-10T16:17:46;66.22;;;23.83;;
76447;SDS011;65284;51.040;13.722;2023-02-10T16:20:17;29.77;;;11.80;;